Time;durP1;ratioP1;P1;durP2;ratioP2;P2;SDS_P1;SDS_P2;PMS_P1;PMS_P2;Temp;Humidity;BMP_temperature;BMP_pressure;BME280_temperature;BME280_humidity;BME280_pressure;Samples;Min_cycle;Max_cycle;Signal;HPM_P1;HPM_P2
2024/01/02 00:00:40;;;;;;;12.87;3.27;;;5.90;99.90;;;;;;4877622;29;20085;-91
2024/01/02 00:03:44;;;;;;;11.83;2.97;;;5.20;99.90;;;;;;4972545;23;20055;-92
2024/01/02 00:06:16;;;;;;;12.33;2.83;;;6.10;99.90;;;;;;4979028;28;20062;-91
2024/01/02 00:09:24;;;;;;;12.40;2.73;;;5.10;99.90;;;;;;4907732;29;20095;-91
2024/01/02 00:19:01;;;;;;;13.60;2.87;;;5.30;99.90;;;;;;4993463;28;20051;-90
2024/01/02 00:21:51;;;;;;;12.17;2.57;;;5.10;99.90;;;;;;4971272;28;20055;-91
2024/01/02 00:24:35;;;;;;;14.97;3.00;;;5.40;99.90;;;;;;4937232;28;20423;-90
2024/01/02 00:30:45;;;;;;;11.10;2.50;;;5.40;99.90;;;;;;4973609;28;20462;-90
2024/01/02 00:33:19;;;;;;;11.23;2.60;;;6.30;99.90;;;;;;4957607;28;20082;-91
2024/01/02 00:35:50;;;;;;;10.60;2.73;;;5.50;99.90;;;;;;4973510;28;20047;-91
2024/01/02 00:38:16;;;;;;;10.60;2.20;;;4.60;99.90;;;;;;4959400;28;20058;-90
2024/01/02 00:40:50;;;;;;;8.33;2.30;;;3.80;99.90;;;;;;4958412;28;20078;-89
2024/01/02 00:43:31;;;;;;;10.00;2.08;;;6.70;99.90;;;;;;4957921;28;20231;-90
2024/01/02 00:46:06;;;;;;;12.33;2.13;;;6.30;99.90;;;;;;4958485;28;20110;-90
2024/01/02 00:48:50;;;;;;;7.87;2.40;;;4.50;99.90;;;;;;4958791;28;20051;-90
2024/01/02 00:51:22;;;;;;;6.43;1.67;;;5.30;99.90;;;;;;4957946;28;20042;-90
2024/01/02 00:54:00;;;;;;;8.37;2.10;;;6.60;99.90;;;;;;4958841;28;20133;-90
2024/01/02 00:56:33;;;;;;;8.83;2.03;;;5.80;99.90;;;;;;4958251;28;20042;-90
2024/01/02 00:59:55;;;;;;;11.07;2.17;;;4.70;99.90;;;;;;4977497;23;20056;-90
2024/01/02 01:02:40;;;;;;;12.67;2.30;;;4.60;99.90;;;;;;4900447;29;20134;-89
2024/01/02 01:07:46;;;;;;;13.63;2.63;;;5.40;99.90;;;;;;4987849;23;20050;-89
2024/01/02 01:10:16;;;;;;;13.47;2.50;;;6.60;99.90;;;;;;4956751;28;20081;-89
2024/01/02 01:12:42;;;;;;;14.10;2.63;;;5.40;99.90;;;;;;4958201;28;20102;-90
2024/01/02 01:15:35;;;;;;;15.43;2.80;;;6.10;99.90;;;;;;4975195;28;20554;-90
2024/01/02 01:18:13;;;;;;;11.07;2.87;;;6.00;99.90;;;;;;4956950;28;20047;-90
2024/01/02 01:21:13;;;;;;;11.93;2.77;;;5.90;99.90;;;;;;4958517;28;20510;-89
2024/01/02 01:23:57;;;;;;;11.47;2.73;;;5.60;99.90;;;;;;4958629;28;20042;-90
2024/01/02 01:26:59;;;;;;;14.50;3.10;;;5.50;99.90;;;;;;4958916;28;20498;-89
2024/01/02 01:29:31;;;;;;;15.03;3.03;;;5.40;99.90;;;;;;4944922;23;20059;-89
2024/01/02 01:32:22;;;;;;;16.70;3.40;;;5.40;99.90;;;;;;4935687;29;20058;-89
2024/01/02 01:34:48;;;;;;;15.73;2.97;;;5.60;99.90;;;;;;4919783;29;20050;-89
2024/01/02 01:37:13;;;;;;;12.37;3.10;;;4.60;99.90;;;;;;4937334;29;20051;-89
2024/01/02 01:39:39;;;;;;;13.33;2.67;;;5.20;99.90;;;;;;4933918;29;20052;-88
2024/01/02 01:42:14;;;;;;;12.57;4.00;;;5.10;99.90;;;;;;4934839;29;20044;-89
2024/01/02 01:45:01;;;;;;;13.60;3.23;;;5.40;99.90;;;;;;4936727;29;20051;-88
2024/01/02 01:47:26;;;;;;;15.97;3.17;;;5.20;99.90;;;;;;4934985;29;20047;-88
2024/01/02 01:50:14;;;;;;;16.00;3.67;;;5.00;99.90;;;;;;4934237;29;20063;-88
2024/01/02 01:52:41;;;;;;;17.10;3.63;;;5.90;99.90;;;;;;4949734;29;20095;-88
2024/01/02 01:55:16;;;;;;;19.23;3.70;;;4.80;99.90;;;;;;4935350;29;20071;-88
2024/01/02 01:57:58;;;;;;;17.10;3.37;;;5.50;99.90;;;;;;4935233;29;20493;-88
2024/01/02 02:00:33;;;;;;;17.67;3.40;;;6.50;99.90;;;;;;4935579;29;20039;-88
2024/01/02 02:03:02;;;;;;;16.83;3.50;;;6.80;99.90;;;;;;4934639;29;20047;-88
2024/01/02 02:05:33;;;;;;;15.43;3.50;;;4.60;99.90;;;;;;4934496;29;20051;-88
2024/01/02 02:08:14;;;;;;;18.07;3.87;;;5.30;99.90;;;;;;4935088;29;20139;-88
2024/01/02 02:10:39;;;;;;;15.80;4.20;;;4.10;99.90;;;;;;4935098;29;20043;-88
2024/01/02 02:13:15;;;;;;;21.30;4.30;;;5.60;99.90;;;;;;4935796;29;20044;-88
2024/01/02 02:15:56;;;;;;;16.13;4.63;;;5.70;99.90;;;;;;4933634;29;20051;-88
2024/01/02 02:18:36;;;;;;;13.03;4.20;;;6.90;99.90;;;;;;4924370;29;20039;-89
2024/01/02 02:21:03;;;;;;;14.93;4.33;;;6.20;99.90;;;;;;4972847;23;20047;-88
2024/01/02 02:23:29;;;;;;;17.73;4.10;;;5.60;99.90;;;;;;4918472;29;20058;-89
2024/01/02 02:25:55;;;;;;;14.33;4.23;;;5.70;99.90;;;;;;4918391;29;20563;-89
2024/01/02 02:28:30;;;;;;;15.83;4.40;;;5.60;99.90;;;;;;4917001;29;20052;-89
2024/01/02 02:30:59;;;;;;;16.90;4.37;;;5.30;99.90;;;;;;4918116;29;20054;-89
2024/01/02 02:33:25;;;;;;;15.77;4.13;;;5.90;99.90;;;;;;4917271;29;20111;-88
2024/01/02 02:36:12;;;;;;;13.73;4.10;;;7.10;99.90;;;;;;4916138;29;20047;-88
2024/01/02 02:38:38;;;;;;;21.60;4.90;;;5.90;99.90;;;;;;4955132;23;20504;-88
2024/01/02 02:41:03;;;;;;;15.90;3.93;;;6.90;99.90;;;;;;4936949;29;20075;-88
2024/01/02 02:43:29;;;;;;;14.23;3.87;;;6.40;99.90;;;;;;4935800;29;20035;-88
2024/01/02 02:48:38;;;;;;;14.03;4.10;;;5.70;99.90;;;;;;4936359;23;20051;-88
2024/01/02 02:51:04;;;;;;;14.63;4.37;;;6.20;99.90;;;;;;4917891;29;20109;-88
2024/01/02 02:53:29;;;;;;;12.93;3.80;;;6.10;99.90;;;;;;4917745;29;20047;-87
2024/01/02 02:55:55;;;;;;;15.33;4.63;;;5.70;99.90;;;;;;4917204;29;20094;-87
2024/01/02 02:58:20;;;;;;;21.13;5.03;;;6.80;99.90;;;;;;4918497;29;20040;-87
2024/01/02 03:00:49;;;;;;;16.77;4.20;;;6.30;99.90;;;;;;4918516;29;20056;-88
2024/01/02 03:03:15;;;;;;;12.77;3.97;;;5.90;99.90;;;;;;4917853;29;20178;-87
2024/01/02 03:05:40;;;;;;;15.80;4.27;;;5.70;99.90;;;;;;4918174;29;20135;-88
2024/01/02 03:08:12;;;;;;;16.83;4.53;;;5.80;99.90;;;;;;4920238;29;20094;-88
2024/01/02 03:10:51;;;;;;;15.33;4.13;;;5.80;99.90;;;;;;4925039;29;20047;-87
2024/01/02 03:13:29;;;;;;;12.97;4.30;;;6.30;99.90;;;;;;4941780;29;20038;-87
2024/01/02 03:15:55;;;;;;;19.63;4.00;;;6.00;99.90;;;;;;4922015;29;20560;-87
2024/01/02 03:18:20;;;;;;;12.13;3.60;;;5.70;99.90;;;;;;4919821;29;20095;-87
2024/01/02 03:20:58;;;;;;;14.07;3.60;;;5.80;99.90;;;;;;4917994;29;20118;-88
2024/01/02 03:24:02;;;;;;;14.50;3.57;;;6.10;99.90;;;;;;4917774;29;20043;-88
2024/01/02 03:26:40;;;;;;;15.27;3.92;;;6.20;99.90;;;;;;4861190;29;20065;-88
2024/01/02 03:29:05;;;;;;;16.30;3.50;;;4.90;99.90;;;;;;4860406;29;20106;-88
2024/01/02 03:31:31;;;;;;;13.97;3.60;;;6.20;99.90;;;;;;4860634;29;20088;-88
2024/01/02 03:33:57;;;;;;;11.67;3.87;;;5.60;99.90;;;;;;4859453;29;20049;-88
2024/01/02 03:36:23;;;;;;;10.67;3.10;;;7.40;99.90;;;;;;4877350;29;20055;-88
2024/01/02 03:38:53;;;;;;;12.07;3.20;;;5.80;99.90;;;;;;4916708;29;20059;-88
2024/01/02 03:41:19;;;;;;;14.67;3.60;;;6.00;99.90;;;;;;4917939;29;20055;-88
2024/01/02 03:43:54;;;;;;;13.07;3.30;;;6.60;99.90;;;;;;4916707;29;20056;-88
2024/01/02 03:46:20;;;;;;;10.23;3.13;;;5.70;99.90;;;;;;4917620;29;20527;-88
2024/01/02 03:48:51;;;;;;;17.13;3.30;;;6.10;99.90;;;;;;4917358;29;20059;-88
2024/01/02 03:51:29;;;;;;;14.53;3.50;;;4.80;99.90;;;;;;4920705;29;20567;-88
2024/01/02 03:54:04;;;;;;;11.17;3.10;;;7.20;99.90;;;;;;4920308;29;20051;-87
2024/01/02 03:56:38;;;;;;;15.73;3.40;;;5.80;99.90;;;;;;4920988;29;20094;-88
2024/01/02 03:59:04;;;;;;;11.67;3.07;;;6.90;99.90;;;;;;4920844;29;20050;-88
2024/01/02 04:01:45;;;;;;;11.77;3.33;;;7.20;99.90;;;;;;4921285;29;20052;-87
2024/01/02 04:04:11;;;;;;;12.87;3.00;;;5.50;99.90;;;;;;4921941;29;20130;-88
2024/01/02 04:06:40;;;;;;;15.33;3.30;;;5.90;99.90;;;;;;4920844;29;20206;-88
2024/01/02 04:09:11;;;;;;;12.40;3.73;;;5.20;99.90;;;;;;4919169;29;20051;-87
2024/01/02 04:11:37;;;;;;;10.40;3.37;;;6.70;99.90;;;;;;4940957;23;20058;-88
2024/01/02 04:14:02;;;;;;;10.13;3.33;;;5.90;99.90;;;;;;4946006;23;20047;-88
2024/01/02 04:16:28;;;;;;;14.13;3.27;;;6.20;99.90;;;;;;4935653;29;20039;-88
2024/01/02 04:18:54;;;;;;;10.93;3.20;;;5.90;99.90;;;;;;4939665;29;20051;-88
2024/01/02 04:21:19;;;;;;;11.63;3.43;;;5.90;99.90;;;;;;4939007;28;20480;-87
2024/01/02 04:23:56;;;;;;;11.50;3.50;;;5.90;99.90;;;;;;4932918;29;20484;-88
2024/01/02 04:26:40;;;;;;;10.87;3.20;;;5.60;99.90;;;;;;4920712;29;20039;-89
2024/01/02 04:29:05;;;;;;;11.98;2.90;;;7.10;99.90;;;;;;4958551;23;20062;-88
2024/01/02 04:31:31;;;;;;;10.23;2.87;;;7.20;99.90;;;;;;4938323;29;20051;-88
2024/01/02 04:34:09;;;;;;;9.73;2.80;;;5.70;99.90;;;;;;4939204;29;20039;-88
2024/01/02 04:36:40;;;;;;;12.07;3.50;;;7.20;99.90;;;;;;4939970;29;20524;-88
2024/01/02 04:39:11;;;;;;;12.47;2.90;;;5.70;99.90;;;;;;4939023;29;20051;-87
2024/01/02 04:41:50;;;;;;;12.17;3.10;;;5.50;99.90;;;;;;4938849;29;20047;-87
2024/01/02 04:44:31;;;;;;;10.87;3.00;;;5.40;99.90;;;;;;4940570;29;20047;-87
2024/01/02 04:47:06;;;;;;;10.63;2.90;;;5.90;99.90;;;;;;4920038;29;20126;-88
2024/01/02 04:49:32;;;;;;;10.83;3.03;;;7.30;99.90;;;;;;4921327;29;20048;-88
2024/01/02 04:52:01;;;;;;;8.80;2.60;;;7.10;99.90;;;;;;4925767;29;20134;-88
2024/01/02 04:54:30;;;;;;;9.53;3.03;;;5.90;99.90;;;;;;4938461;29;20051;-88
2024/01/02 04:57:05;;;;;;;10.27;2.97;;;7.10;99.90;;;;;;4937022;29;20078;-88
2024/01/02 04:59:36;;;;;;;12.10;2.80;;;6.90;99.90;;;;;;4922908;29;20051;-89
2024/01/02 05:02:11;;;;;;;7.80;2.60;;;5.90;99.90;;;;;;4935781;29;20050;-88
2024/01/02 05:04:37;;;;;;;11.80;2.87;;;5.70;99.90;;;;;;4939183;29;20054;-88
2024/01/02 05:07:15;;;;;;;9.97;2.70;;;5.60;99.90;;;;;;4941504;29;20043;-87
2024/01/02 05:09:53;;;;;;;11.03;2.70;;;5.90;99.90;;;;;;4939130;29;20535;-88
2024/01/02 05:12:27;;;;;;;9.30;2.80;;;6.00;99.90;;;;;;4940261;29;20111;-88
2024/01/02 05:15:02;;;;;;;8.33;2.40;;;4.90;99.90;;;;;;4941055;29;20087;-88
2024/01/02 05:17:33;;;;;;;10.70;2.77;;;5.90;99.90;;;;;;4939275;29;20066;-88
2024/01/02 05:20:14;;;;;;;8.27;2.50;;;7.40;99.90;;;;;;4938256;29;20039;-88
2024/01/02 05:22:43;;;;;;;8.67;2.63;;;5.60;99.90;;;;;;4938314;29;20089;-87
2024/01/02 05:25:24;;;;;;;8.47;2.50;;;5.80;99.90;;;;;;4937670;29;20126;-87
2024/01/02 05:27:50;;;;;;;10.40;3.13;;;7.20;99.90;;;;;;4937645;29;20051;-88
2024/01/02 05:30:40;;;;;;;8.10;2.50;;;5.40;99.90;;;;;;4938302;29;20516;-88
2024/01/02 05:33:06;;;;;;;8.97;2.97;;;5.90;99.90;;;;;;4937822;29;20055;-88
2024/01/02 05:35:32;;;;;;;9.83;2.83;;;6.60;99.90;;;;;;4938296;29;20087;-88
2024/01/02 05:38:04;;;;;;;8.23;2.70;;;6.00;99.90;;;;;;4937146;29;20047;-88
2024/01/02 05:40:52;;;;;;;9.23;2.73;;;7.10;99.90;;;;;;4938725;29;20069;-88
2024/01/02 05:43:17;;;;;;;8.67;2.83;;;5.90;99.90;;;;;;4939674;29;20495;-87
2024/01/02 05:45:49;;;;;;;8.93;2.90;;;5.90;99.90;;;;;;4938016;29;20066;-87
2024/01/02 05:48:27;;;;;;;7.67;2.57;;;5.80;99.90;;;;;;4938064;29;20074;-87
2024/01/02 05:50:57;;;;;;;8.77;2.93;;;4.90;99.90;;;;;;4937485;29;20035;-87
2024/01/02 05:53:23;;;;;;;9.10;2.73;;;6.90;99.90;;;;;;4936763;29;20047;-87
2024/01/02 05:55:48;;;;;;;7.80;2.83;;;7.40;99.90;;;;;;4938062;29;20467;-87
2024/01/02 05:58:14;;;;;;;8.70;2.73;;;6.00;99.90;;;;;;4937888;29;20137;-87
2024/01/02 06:00:40;;;;;;;9.63;2.50;;;6.00;99.90;;;;;;4937222;29;20051;-87
2024/01/02 06:03:08;;;;;;;8.10;2.67;;;5.90;99.90;;;;;;4938993;29;20082;-87
2024/01/02 06:05:34;;;;;;;9.80;2.80;;;6.00;99.90;;;;;;4937932;29;20109;-87
2024/01/02 06:08:10;;;;;;;6.23;2.10;;;6.00;99.90;;;;;;4937361;29;20043;-87
2024/01/02 06:10:53;;;;;;;7.37;2.17;;;7.10;99.90;;;;;;4955239;29;20058;-86
2024/01/02 06:13:28;;;;;;;6.05;1.92;;;6.00;99.90;;;;;;4947261;29;20047;-87
2024/01/02 06:16:03;;;;;;;8.43;2.07;;;7.20;99.90;;;;;;4957367;28;20073;-87
2024/01/02 06:18:29;;;;;;;8.23;2.13;;;6.10;99.90;;;;;;4939203;29;20126;-87
2024/01/02 06:21:04;;;;;;;6.67;2.00;;;5.80;99.90;;;;;;4936981;29;20558;-87
2024/01/02 06:23:46;;;;;;;7.60;2.00;;;6.00;99.90;;;;;;4938808;29;20130;-87
2024/01/02 06:26:30;;;;;;;7.10;2.40;;;6.30;99.90;;;;;;4937920;29;20138;-88
2024/01/02 06:29:26;;;;;;;6.53;1.92;;;6.10;99.90;;;;;;4935732;29;20748;-88
2024/01/02 06:32:43;;;;;;;7.40;2.07;;;6.40;99.90;;;;;;4937758;29;20567;-88
2024/01/02 06:35:51;;;;;;;7.20;2.20;;;5.90;99.90;;;;;;4965373;28;20053;-88
2024/01/02 06:38:30;;;;;;;7.10;2.40;;;6.10;99.90;;;;;;4957910;28;20047;-88
2024/01/02 06:47:12;;;;;;;6.63;2.00;;;6.10;99.90;;;;;;4952419;23;20063;-88
2024/01/02 06:49:38;;;;;;;7.63;2.37;;;6.50;99.90;;;;;;4917292;29;20052;-88
2024/01/02 06:52:04;;;;;;;5.97;2.00;;;6.20;99.90;;;;;;4918180;29;20044;-88
2024/01/02 06:54:34;;;;;;;6.53;1.90;;;6.10;99.90;;;;;;4918733;29;20050;-88
2024/01/02 06:57:03;;;;;;;7.37;2.10;;;6.20;99.90;;;;;;4917832;29;20080;-89
2024/01/02 06:59:31;;;;;;;5.67;1.60;;;6.20;99.90;;;;;;4918574;29;20044;-88
2024/01/02 07:02:06;;;;;;;6.27;1.90;;;5.80;99.90;;;;;;4934410;29;20496;-88
2024/01/02 07:04:37;;;;;;;4.97;1.70;;;7.90;99.90;;;;;;4918468;29;20048;-89
2024/01/02 07:07:18;;;;;;;4.83;1.87;;;6.00;99.90;;;;;;4918488;29;20040;-88
2024/01/02 07:09:44;;;;;;;5.90;1.77;;;7.90;99.90;;;;;;4918883;29;20110;-88
2024/01/02 07:12:28;;;;;;;4.53;1.60;;;6.60;99.90;;;;;;4919331;29;20052;-89
2024/01/02 07:15:12;;;;;;;5.13;1.70;;;6.10;99.90;;;;;;4918005;29;20055;-89
2024/01/02 07:17:49;;;;;;;;;;;6.10;99.90;;;;;;4917817;29;20048;-88
2024/01/02 07:20:49;;;;;;;6.00;1.93;;;6.30;99.90;;;;;;4920078;29;19923;-89
2024/01/02 07:23:15;;;;;;;9.37;2.20;;;6.60;99.90;;;;;;4917948;29;20071;-89
2024/01/02 07:25:56;;;;;;;5.77;1.97;;;7.60;99.90;;;;;;4938788;29;20048;-89
2024/01/02 07:28:22;;;;;;;7.13;2.17;;;8.20;99.90;;;;;;4921824;29;20051;-89
2024/01/02 07:31:13;;;;;;;6.43;1.90;;;6.30;99.90;;;;;;4920873;29;20058;-89
2024/01/02 07:33:57;;;;;;;6.90;2.30;;;7.00;99.90;;;;;;4922404;29;20048;-89
2024/01/02 07:36:23;;;;;;;6.70;2.27;;;6.60;99.90;;;;;;4921750;29;20083;-89
2024/01/02 07:39:00;;;;;;;6.77;2.20;;;6.50;99.90;;;;;;4920759;29;20078;-86
2024/01/02 07:53:09;;;;;;;10.23;3.70;;;6.40;99.90;;;;;;4900952;29;20102;-89
2024/01/02 07:55:37;;;;;;;11.83;4.03;;;6.90;99.90;;;;;;4902922;29;20489;-88
2024/01/02 07:58:03;;;;;;;12.10;4.40;;;6.80;99.90;;;;;;4901773;29;20048;-90
2024/01/02 08:00:35;;;;;;;12.60;4.30;;;6.50;99.90;;;;;;4902658;29;20051;-90
2024/01/02 08:03:04;;;;;;;11.83;4.40;;;6.90;99.90;;;;;;4902479;29;20044;-91
2024/01/02 08:05:45;;;;;;;14.80;4.97;;;6.90;99.90;;;;;;4902585;29;20424;-90
2024/01/02 08:08:19;;;;;;;11.90;4.57;;;7.10;99.90;;;;;;4901201;29;20048;-88
2024/01/02 08:11:19;;;;;;;11.67;4.37;;;8.60;99.90;;;;;;4902512;29;20079;-89
2024/01/02 08:14:14;;;;;;;12.73;4.97;;;7.60;99.90;;;;;;5013499;23;20508;-88
2024/01/02 08:17:23;;;;;;;12.20;4.50;;;7.60;99.90;;;;;;4945958;23;20058;-92
2024/01/02 08:19:50;;;;;;;12.47;4.07;;;7.40;99.90;;;;;;4943009;29;20047;-94
2024/01/02 08:22:22;;;;;;;13.80;4.60;;;9.40;99.90;;;;;;4944960;29;20133;-92
2024/01/02 08:24:54;;;;;;;14.70;6.53;;;8.10;99.90;;;;;;4946767;29;20472;-93
2024/01/02 08:27:29;;;;;;;13.50;4.60;;;7.10;99.90;;;;;;4947912;29;20102;-93
2024/01/02 08:30:09;;;;;;;15.50;4.93;;;9.20;99.90;;;;;;4949758;29;20091;-93
2024/01/02 08:32:53;;;;;;;16.20;6.57;;;8.30;99.90;;;;;;4957899;23;20055;-92
2024/01/02 08:35:43;;;;;;;15.17;4.53;;;8.40;99.90;;;;;;4936686;29;20043;-94
2024/01/02 08:39:12;;;;;;;15.20;5.10;;;7.70;99.90;;;;;;5189932;23;20740;-95
2024/01/02 08:41:37;;;;;;;11.10;3.70;;;8.00;99.90;;;;;;4939292;29;20129;-94
2024/01/02 08:44:04;;;;;;;12.87;4.47;;;8.90;99.90;;;;;;5030725;23;20154;-95
2024/01/02 08:46:31;;;;;;;13.57;7.13;;;8.80;99.90;;;;;;4939936;29;20385;-94
2024/01/02 08:49:06;;;;;;;18.47;7.80;;;10.20;99.90;;;;;;4951897;23;20054;-94
2024/01/02 08:54:24;;;;;;;17.30;6.23;;;8.80;99.90;;;;;;5262707;23;20026;-93
2024/01/02 08:56:54;;;;;;;13.30;4.20;;;9.20;99.90;;;;;;4938663;29;20055;-95
2024/01/02 08:59:20;;;;;;;11.80;4.53;;;9.00;99.90;;;;;;4940029;29;20079;-92
2024/01/02 09:02:07;;;;;;;17.47;6.00;;;10.10;99.90;;;;;;4940354;29;20098;-93
2024/01/02 09:04:45;;;;;;;12.33;4.27;;;9.40;99.90;;;;;;4953545;29;20058;-92
2024/01/02 09:10:05;;;;;;;15.32;5.80;;;9.10;99.90;;;;;;4939836;29;20044;-93
2024/01/02 09:12:31;;;;;;;20.75;5.97;;;9.10;99.90;;;;;;4937326;29;20055;-93
2024/01/02 09:15:00;;;;;;;12.52;4.60;;;10.30;99.90;;;;;;4939325;29;20058;-93
2024/01/02 09:17:35;;;;;;;14.30;3.92;;;10.30;99.90;;;;;;4941574;28;20106;-91
2024/01/02 09:20:11;;;;;;;19.00;7.05;;;10.10;99.90;;;;;;4939465;29;20109;-92
2024/01/02 09:22:46;;;;;;;15.65;4.50;;;9.30;99.90;;;;;;4942409;23;20118;-92
2024/01/02 09:29:02;;;;;;;13.20;5.43;;;8.70;99.90;;;;;;5203204;23;20125;-96
2024/01/02 09:31:30;;;;;;;16.30;5.77;;;9.60;99.90;;;;;;4946389;23;20063;-95
2024/01/02 09:40:10;;;;;;;35.63;18.65;;;9.60;99.90;;;;;;4948863;23;20067;-94
2024/01/02 09:43:13;;;;;;;23.50;12.23;;;9.50;99.90;;;;;;4969617;23;20033;-94
2024/01/02 09:49:45;;;;;;;15.95;4.75;;;9.80;99.90;;;;;;4929805;29;20047;-94
2024/01/02 09:58:38;;;;;;;20.08;5.47;;;9.90;99.90;;;;;;4495157;23;20530;-93
2024/01/02 10:01:15;;;;;;;16.58;4.32;;;9.80;99.90;;;;;;4940626;29;20138;-92
2024/01/02 10:04:02;;;;;;;19.55;4.32;;;9.90;99.90;;;;;;4940235;29;20087;-92
2024/01/02 10:06:54;;;;;;;14.15;4.63;;;10.00;99.90;;;;;;4939922;29;20408;-92
2024/01/02 10:12:41;;;;;;;20.10;4.22;;;10.10;99.90;;;;;;4959971;23;20060;-92
2024/01/02 10:15:31;;;;;;;13.20;5.18;;;10.00;99.90;;;;;;4920511;29;20055;-95
2024/01/02 10:24:16;;;;;;;20.27;9.60;;;10.20;99.90;;;;;;5029795;23;20048;-96
2024/01/02 10:27:08;;;;;;;15.85;4.32;;;9.60;99.90;;;;;;4900783;29;20052;-93
2024/01/02 10:51:31;;;;;;;17.67;4.82;;;10.70;99.90;;;;;;5550351;23;20047;-90
2024/01/02 10:54:05;;;;;;;18.33;3.33;;;10.40;99.90;;;;;;4920115;29;20135;-90
2024/01/02 10:57:22;;;;;;;16.15;4.38;;;10.80;99.90;;;;;;4940329;23;20066;-90
2024/01/02 11:00:18;;;;;;;17.20;4.15;;;10.20;99.90;;;;;;4904115;29;20052;-82
2024/01/02 11:03:29;;;;;;;20.43;3.53;;;10.20;99.90;;;;;;4895211;29;20115;-92
2024/01/02 11:12:46;;;;;;;19.15;4.15;;;10.70;99.90;;;;;;5237318;23;20071;-92
2024/01/02 11:15:46;;;;;;;14.20;3.35;;;10.60;99.90;;;;;;4928110;29;20044;-95
2024/01/02 11:18:34;;;;;;;17.67;3.95;;;10.70;99.90;;;;;;4898656;29;20115;-91
2024/01/02 11:21:33;;;;;;;16.85;4.57;;;10.70;99.90;;;;;;4890050;29;20048;-92
2024/01/02 11:24:32;;;;;;;;;;;;;;;;;;;;;
2024/01/02 11:27:07;;;;;;;;;;;10.70;99.90;;;;;;4954602;23;20561;-89
2024/01/02 11:29:37;;;;;;;23.10;4.65;;;10.70;99.90;;;;;;4920915;29;20368;-89
2024/01/02 11:35:05;;;;;;;18.98;4.75;;;10.70;99.90;;;;;;5185914;23;20047;-89
2024/01/02 11:38:10;;;;;;;17.60;4.65;;;10.60;99.90;;;;;;4921185;29;20071;-90
2024/01/02 11:41:26;;;;;;;20.88;4.47;;;10.70;99.90;;;;;;4923160;29;20047;-89
2024/01/02 11:44:38;;;;;;;22.63;5.53;;;10.60;99.90;;;;;;4921670;29;20047;-87
2024/01/02 12:11:57;;;;;;;23.50;5.55;;;10.60;99.90;;;;;;4998744;23;20143;-88
2024/01/02 15:13:11;;;;;;;5.45;1.80;;;10.20;99.90;;;;;;5023690;23;20033;-90
2024/01/02 15:30:18;;;;;;;4.18;1.55;;;9.10;99.90;;;;;;4887858;29;20135;-91
2024/01/02 15:53:46;;;;;;;5.28;2.03;;;9.70;99.90;;;;;;4911750;29;20159;-90
2024/01/02 15:56:53;;;;;;;5.90;1.95;;;9.40;99.90;;;;;;4882941;29;20509;-89
2024/01/02 15:59:25;;;;;;;5.30;1.90;;;9.70;99.90;;;;;;4883153;29;20059;-86
2024/01/02 16:02:42;;;;;;;4.55;1.60;;;10.00;99.90;;;;;;4881197;29;20183;-87
2024/01/02 16:05:26;;;;;;;3.30;1.50;;;9.60;99.90;;;;;;4881526;29;20057;-87
2024/01/02 16:08:01;;;;;;;5.00;1.63;;;9.60;99.90;;;;;;4882189;29;20068;-86
2024/01/02 16:10:43;;;;;;;3.60;1.45;;;9.60;99.90;;;;;;4901488;29;20048;-86
2024/01/02 16:13:31;;;;;;;8.13;1.95;;;9.50;99.90;;;;;;4902148;29;20051;-85
2024/01/02 16:16:09;;;;;;;6.30;2.20;;;9.50;99.90;;;;;;4898622;29;20051;-85
2024/01/02 16:19:10;;;;;;;8.43;2.60;;;9.50;99.90;;;;;;4882361;29;20056;-86
2024/01/02 16:22:13;;;;;;;6.55;2.28;;;9.50;99.90;;;;;;4880649;29;20144;-86
2024/01/02 16:24:47;;;;;;;7.53;2.75;;;9.50;99.90;;;;;;4882212;29;20490;-86
2024/01/02 16:27:31;;;;;;;8.70;2.90;;;9.50;99.90;;;;;;4882686;29;20063;-86
2024/01/02 16:30:37;;;;;;;7.72;3.15;;;10.40;99.90;;;;;;4882712;29;20131;-86
2024/01/02 16:33:27;;;;;;;7.10;2.67;;;9.50;99.90;;;;;;4882299;29;20055;-86
2024/01/02 16:36:38;;;;;;;8.55;3.15;;;9.50;99.90;;;;;;4882867;29;20053;-86
2024/01/02 16:39:17;;;;;;;8.90;3.03;;;9.50;99.90;;;;;;4950466;23;20059;-86
2024/01/02 16:42:06;;;;;;;8.23;3.15;;;9.40;99.90;;;;;;4991581;23;20044;-86
2024/01/02 16:44:32;;;;;;;8.23;3.30;;;9.50;99.90;;;;;;4936262;29;20492;-84
2024/01/02 16:47:10;;;;;;;8.30;3.20;;;11.10;99.90;;;;;;4935153;29;20051;-85
2024/01/02 16:49:55;;;;;;;7.97;3.20;;;10.60;99.90;;;;;;4935487;29;20054;-85
2024/01/02 16:52:30;;;;;;;8.00;3.30;;;9.50;99.90;;;;;;4935864;29;20047;-85
2024/01/02 16:55:28;;;;;;;8.97;3.40;;;9.50;99.90;;;;;;4935480;28;20040;-87
2024/01/02 16:57:55;;;;;;;9.30;3.67;;;10.70;99.90;;;;;;5013674;23;20108;-87
2024/01/02 17:00:21;;;;;;;9.37;3.70;;;10.70;99.90;;;;;;4937452;29;20079;-85
2024/01/02 17:06:10;;;;;;;10.55;3.65;;;9.60;99.90;;;;;;4968439;23;20035;-90
2024/01/02 17:08:38;;;;;;;9.27;3.72;;;9.50;99.90;;;;;;4910003;29;20160;-88
2024/01/02 17:11:05;;;;;;;9.30;3.67;;;10.70;99.90;;;;;;4915924;29;21488;-91
2024/01/02 17:13:34;;;;;;;9.00;3.60;;;10.60;99.90;;;;;;4914060;29;20075;-90
2024/01/02 17:16:09;;;;;;;9.70;3.88;;;10.60;99.90;;;;;;4915257;29;20401;-90
2024/01/02 17:18:43;;;;;;;9.27;4.10;;;11.00;99.90;;;;;;4914459;29;20548;-91
2024/01/02 17:21:28;;;;;;;9.77;4.13;;;9.50;99.90;;;;;;4949393;23;20052;-90
2024/01/02 17:24:06;;;;;;;10.55;4.40;;;9.70;99.90;;;;;;4897952;29;20051;-91
2024/01/02 17:47:16;;;;;;;10.07;4.15;;;9.20;99.90;;;;;;4928354;29;20054;-91
2024/01/02 18:32:24;;;;;;;3.63;1.43;;;9.80;99.90;;;;;;4919874;29;20058;-89
2024/01/02 18:35:37;;;;;;;4.15;1.67;;;9.90;99.90;;;;;;4862150;29;20067;-90
2024/01/02 18:47:42;;;;;;;6.30;1.83;;;10.00;99.90;;;;;;4895968;29;20065;-91
2024/01/02 18:51:33;;;;;;;6.57;1.80;;;10.20;99.90;;;;;;4894365;29;20066;-90
2024/01/02 18:54:54;;;;;;;6.78;1.80;;;9.30;99.90;;;;;;4915512;29;20043;-90
2024/01/02 19:00:11;;;;;;;7.28;2.47;;;10.20;99.90;;;;;;4958001;23;20055;-91
2024/01/02 19:06:49;;;;;;;6.07;2.10;;;10.40;99.90;;;;;;4936411;29;20086;-90
2024/01/02 19:09:47;;;;;;;6.53;2.30;;;11.90;99.90;;;;;;4937023;28;20496;-89
2024/01/02 19:12:33;;;;;;;6.57;2.53;;;10.20;99.90;;;;;;4917227;29;20065;-90
2024/01/02 19:15:39;;;;;;;7.93;2.60;;;11.30;99.90;;;;;;4927650;28;20537;-91
2024/01/02 19:18:35;;;;;;;7.75;2.80;;;11.80;99.90;;;;;;4945604;28;20105;-90
2024/01/02 19:38:56;;;;;;;8.45;2.70;;;10.60;99.90;;;;;;4909177;29;20171;-89
2024/01/02 19:41:22;;;;;;;7.03;2.58;;;11.50;99.90;;;;;;4898849;29;20067;-90
2024/01/02 19:44:23;;;;;;;9.60;2.78;;;11.50;99.90;;;;;;4894341;29;20048;-89
2024/01/02 19:46:50;;;;;;;7.00;2.50;;;10.80;99.90;;;;;;4906888;23;20393;-88
2024/01/02 19:49:36;;;;;;;8.05;2.78;;;11.80;99.90;;;;;;4885953;29;20056;-88
2024/01/02 19:52:18;;;;;;;8.25;2.92;;;11.60;99.90;;;;;;4883358;29;20048;-88
2024/01/02 19:54:50;;;;;;;8.40;2.88;;;10.50;99.90;;;;;;4871861;29;20049;-89
2024/01/02 20:03:45;;;;;;;7.30;2.28;;;10.70;99.90;;;;;;4900997;29;20497;-89
2024/01/02 20:06:55;;;;;;;8.10;2.10;;;10.80;99.90;;;;;;4890627;29;20983;-88
2024/01/02 20:09:40;;;;;;;9.27;2.30;;;10.10;99.90;;;;;;4902843;29;20428;-90
2024/01/02 20:12:57;;;;;;;8.75;2.00;;;12.40;99.90;;;;;;4901756;29;20127;-90
2024/01/02 20:33:59;;;;;;;9.35;2.03;;;10.70;99.90;;;;;;4846268;29;20049;-92
2024/01/02 21:03:46;;;;;;;9.95;2.20;;;10.60;99.90;;;;;;6048892;23;20037;31
2024/01/02 21:27:09;;;;;;;11.25;2.38;;;10.20;99.90;;;;;;5712379;23;20484;-96
2024/01/02 22:32:06;;;;;;;10.10;3.03;;;10.00;99.90;;;;;;4933996;29;20111;-92
2024/01/02 22:47:30;;;;;;;8.35;1.83;;;9.60;99.90;;;;;;5310798;23;20469;-89
